Time;durP1;ratioP1;P1;durP2;ratioP2;P2;SDS_P1;SDS_P2;PMS_P1;PMS_P2;Temp;Humidity;BMP_temperature;BMP_pressure;BME280_temperature;BME280_humidity;BME280_pressure;Samples;Min_cycle;Max_cycle;Signal;HPM_P1;HPM_P2
2022/08/06 00:02:09;;;;;;;7.93;1.90;;;21.20;1.00;;;;;;5048916;28;20394;-52
2022/08/06 00:04:35;;;;;;;9.17;2.70;;;21.20;1.00;;;;;;5049223;28;20401;-52
2022/08/06 00:07:00;;;;;;;6.03;1.80;;;21.30;1.00;;;;;;5048345;28;20821;-57
2022/08/06 00:09:33;;;;;;;6.65;2.08;;;21.30;1.00;;;;;;5049386;28;20739;-53
2022/08/06 00:12:00;;;;;;;5.88;2.20;;;21.30;1.00;;;;;;5048012;28;20405;-54
2022/08/06 00:14:29;;;;;;;9.50;2.10;;;21.40;1.00;;;;;;5049514;28;20909;-53
2022/08/06 00:16:55;;;;;;;6.37;2.17;;;21.50;1.00;;;;;;5051022;28;20404;-53
2022/08/06 00:19:21;;;;;;;6.20;1.80;;;21.30;1.00;;;;;;5052800;28;20408;-52
2022/08/06 00:21:48;;;;;;;5.53;1.87;;;21.30;1.00;;;;;;5053663;28;20389;-52
2022/08/06 00:24:14;;;;;;;7.05;2.25;;;21.20;1.00;;;;;;5052629;28;20477;-52
2022/08/06 00:26:40;;;;;;;7.03;2.15;;;21.20;99.90;;;;;;5053197;28;20451;-53
2022/08/06 00:29:06;;;;;;;6.47;2.28;;;21.10;99.90;;;;;;5052671;28;20909;-53
2022/08/06 00:31:33;;;;;;;7.40;1.90;;;20.90;99.90;;;;;;5052998;28;20446;-53
2022/08/06 00:34:01;;;;;;;8.38;2.40;;;20.90;99.90;;;;;;5052598;28;20783;-59
2022/08/06 00:36:28;;;;;;;7.05;1.90;;;20.90;99.90;;;;;;5052774;28;20420;-53
2022/08/06 00:38:54;;;;;;;8.90;2.10;;;20.90;99.90;;;;;;5053160;28;20389;-52
2022/08/06 00:41:21;;;;;;;7.75;2.40;;;20.90;99.90;;;;;;5049326;28;20526;-53
2022/08/06 00:43:47;;;;;;;7.63;2.08;;;20.90;99.90;;;;;;5053142;28;20468;-52
2022/08/06 00:46:13;;;;;;;7.03;2.10;;;20.80;99.90;;;;;;5051848;28;20913;-54
2022/08/06 00:48:38;;;;;;;6.30;2.10;;;20.90;99.90;;;;;;5052572;28;20419;-57
2022/08/06 00:51:04;;;;;;;7.90;2.10;;;20.90;99.90;;;;;;5052051;28;20408;-53
2022/08/06 00:53:30;;;;;;;8.53;2.07;;;20.90;99.90;;;;;;5052603;28;20863;-52
2022/08/06 00:55:56;;;;;;;6.00;1.90;;;20.90;99.90;;;;;;5052229;28;20440;-52
2022/08/06 00:58:22;;;;;;;7.00;2.00;;;21.00;99.90;;;;;;5052405;28;20841;-52
2022/08/06 01:00:48;;;;;;;6.35;2.08;;;20.90;99.90;;;;;;5052586;28;20385;-53
2022/08/06 01:03:16;;;;;;;6.00;2.00;;;20.90;99.90;;;;;;5052044;28;20384;-53
2022/08/06 01:05:43;;;;;;;5.70;2.03;;;20.90;99.90;;;;;;5049577;28;20793;-52
2022/08/06 01:08:12;;;;;;;7.22;2.00;;;21.00;99.90;;;;;;5051777;28;20726;-56
2022/08/06 01:10:38;;;;;;;5.80;1.90;;;20.90;99.90;;;;;;5051670;28;20758;-52
2022/08/06 01:13:04;;;;;;;5.60;2.00;;;20.80;99.90;;;;;;5051661;28;20386;-59
2022/08/06 01:15:31;;;;;;;6.35;2.10;;;20.80;99.90;;;;;;5052379;28;20421;-52
2022/08/06 01:18:08;;;;;;;6.10;2.13;;;20.90;99.90;;;;;;5051820;28;20480;-53
2022/08/06 01:20:42;;;;;;;7.80;1.97;;;20.80;99.90;;;;;;5052194;28;20378;-52
2022/08/06 01:23:40;;;;;;;6.30;1.73;;;20.70;99.90;;;;;;5051344;28;20723;-53
2022/08/06 01:26:40;;;;;;;6.40;1.90;;;20.80;99.90;;;;;;5051163;28;20421;-53
2022/08/06 01:29:11;;;;;;;6.13;2.13;;;20.70;99.90;;;;;;5051836;28;20954;-53
2022/08/06 01:31:44;;;;;;;6.50;2.00;;;20.90;99.90;;;;;;5051447;28;20492;-53
2022/08/06 01:34:33;;;;;;;7.05;1.77;;;20.90;99.90;;;;;;5051247;28;20383;-53
2022/08/06 01:37:29;;;;;;;6.50;2.10;;;20.90;99.90;;;;;;5051411;28;20920;-53
2022/08/06 01:40:03;;;;;;;6.15;2.10;;;20.90;99.90;;;;;;5050689;28;20396;-56
2022/08/06 01:42:30;;;;;;;5.80;2.00;;;20.90;99.90;;;;;;5051902;28;20440;-54
2022/08/06 01:45:03;;;;;;;5.83;1.90;;;20.80;99.90;;;;;;5052051;28;20424;-52
2022/08/06 01:47:32;;;;;;;7.45;1.92;;;20.80;99.90;;;;;;5042623;28;20378;-54
2022/08/06 01:50:01;;;;;;;6.53;2.05;;;20.70;99.90;;;;;;5051521;28;20434;-55
2022/08/06 01:52:28;;;;;;;5.90;2.00;;;20.80;99.90;;;;;;5051999;28;20715;-55
2022/08/06 01:54:58;;;;;;;8.70;2.50;;;20.90;99.90;;;;;;5051700;28;20410;-58
2022/08/06 01:57:26;;;;;;;7.10;2.10;;;20.80;99.90;;;;;;5050482;28;21091;-55
2022/08/06 01:59:55;;;;;;;10.68;2.40;;;20.60;99.90;;;;;;5051763;28;20377;-57
2022/08/06 02:02:23;;;;;;;5.40;2.00;;;20.70;99.90;;;;;;5051391;28;20390;-54
2022/08/06 02:04:57;;;;;;;6.55;2.40;;;20.80;99.90;;;;;;5049180;28;20507;-54
2022/08/06 02:07:30;;;;;;;8.02;2.00;;;20.80;99.90;;;;;;5051217;28;20386;-55
2022/08/06 02:09:58;;;;;;;5.90;2.45;;;20.80;99.90;;;;;;5049330;28;20394;-53
2022/08/06 02:12:27;;;;;;;7.53;2.20;;;20.70;99.90;;;;;;5051033;28;20878;-54
2022/08/06 02:15:23;;;;;;;7.30;2.40;;;20.40;99.90;;;;;;5050550;28;20928;-52
2022/08/06 02:17:52;;;;;;;6.07;2.40;;;20.30;99.90;;;;;;5048192;28;20409;-52
2022/08/06 02:20:24;;;;;;;6.22;2.35;;;20.30;99.90;;;;;;5050145;28;20462;-52
2022/08/06 02:22:51;;;;;;;6.50;2.40;;;20.20;1.00;;;;;;5048976;28;20389;-52
2022/08/06 02:25:18;;;;;;;6.40;2.20;;;20.10;1.00;;;;;;5050495;28;20543;-53
2022/08/06 02:27:50;;;;;;;8.20;2.80;;;20.10;1.00;;;;;;5050759;28;20484;-53
2022/08/06 02:30:16;;;;;;;7.93;2.30;;;20.00;1.00;;;;;;5030622;28;20913;-52
2022/08/06 02:32:42;;;;;;;6.88;2.30;;;20.10;1.00;;;;;;5050999;28;20400;-52
2022/08/06 02:35:09;;;;;;;7.00;2.60;;;20.10;1.00;;;;;;5050647;28;20447;-52
2022/08/06 02:37:49;;;;;;;6.10;2.10;;;20.10;1.00;;;;;;5050780;28;20477;-52
2022/08/06 02:40:40;;;;;;;7.80;2.40;;;19.90;1.00;;;;;;5047614;28;20393;-52
2022/08/06 02:43:20;;;;;;;7.13;2.35;;;19.80;1.00;;;;;;5036714;28;20463;-54
2022/08/06 02:46:02;;;;;;;7.70;2.53;;;19.80;1.00;;;;;;5050405;28;21245;-54
2022/08/06 02:48:38;;;;;;;5.90;2.30;;;19.80;1.00;;;;;;5050378;28;20450;-53
2022/08/06 02:51:08;;;;;;;6.70;2.53;;;19.80;1.00;;;;;;5050138;28;20885;-59
2022/08/06 02:53:49;;;;;;;7.68;2.50;;;19.70;1.00;;;;;;5048733;28;20881;-54
2022/08/06 02:56:15;;;;;;;6.70;2.50;;;19.90;1.00;;;;;;5050499;28;20421;-54
2022/08/06 02:58:45;;;;;;;8.30;2.50;;;20.00;1.00;;;;;;5050731;28;20389;-55
2022/08/06 03:01:21;;;;;;;7.40;2.47;;;20.00;1.00;;;;;;5047184;28;20385;-54
2022/08/06 03:03:50;;;;;;;7.03;2.53;;;19.90;1.00;;;;;;5050155;28;20469;-52
2022/08/06 03:06:18;;;;;;;6.72;2.70;;;19.80;1.00;;;;;;5049092;28;20425;-54
2022/08/06 03:08:45;;;;;;;6.80;2.30;;;19.80;1.00;;;;;;5050472;28;20385;-53
2022/08/06 03:11:12;;;;;;;8.05;3.38;;;19.90;1.00;;;;;;5049599;28;20475;-57
2022/08/06 03:13:39;;;;;;;5.90;2.30;;;19.90;1.00;;;;;;5050643;28;20384;-52
2022/08/06 03:16:06;;;;;;;7.10;2.40;;;19.90;1.00;;;;;;5049379;28;20471;-60
2022/08/06 03:18:34;;;;;;;7.38;2.35;;;20.00;1.00;;;;;;5047559;28;20396;-57
2022/08/06 03:21:01;;;;;;;8.00;2.80;;;20.10;1.00;;;;;;5049779;28;20439;-55
2022/08/06 03:23:29;;;;;;;6.32;2.25;;;20.00;1.00;;;;;;5049190;28;20393;-56
2022/08/06 03:25:56;;;;;;;7.88;2.63;;;20.00;1.00;;;;;;5049661;28;20730;-54
2022/08/06 03:28:24;;;;;;;6.05;2.20;;;19.80;1.00;;;;;;5049190;28;20424;-54
2022/08/06 03:30:50;;;;;;;7.55;2.40;;;19.80;1.00;;;;;;5046994;28;20747;-56
2022/08/06 03:33:18;;;;;;;5.90;2.40;;;19.90;1.00;;;;;;5048813;28;20394;-56
2022/08/06 03:35:44;;;;;;;6.10;2.40;;;19.80;1.00;;;;;;5049813;28;20883;-57
2022/08/06 03:38:12;;;;;;;7.65;2.70;;;19.80;1.00;;;;;;5049501;28;20450;-56
2022/08/06 03:40:41;;;;;;;7.47;2.35;;;20.00;1.00;;;;;;5031300;28;20763;-56
2022/08/06 03:43:07;;;;;;;6.80;2.40;;;20.00;1.00;;;;;;5049206;28;20389;-56
2022/08/06 03:45:37;;;;;;;6.00;2.10;;;20.00;1.00;;;;;;5049041;28;20450;-57
2022/08/06 03:48:05;;;;;;;6.60;2.50;;;20.00;1.00;;;;;;5048877;28;20378;-56
2022/08/06 03:50:40;;;;;;;6.30;2.60;;;19.90;1.00;;;;;;5049444;28;20385;-56
2022/08/06 03:53:12;;;;;;;6.80;2.30;;;19.70;1.00;;;;;;5049389;28;20455;-56
2022/08/06 03:55:39;;;;;;;6.35;2.40;;;19.70;1.00;;;;;;5047944;28;20471;-56
2022/08/06 03:58:11;;;;;;;6.30;2.57;;;19.60;1.00;;;;;;5049370;28;20390;-59
2022/08/06 04:00:46;;;;;;;8.10;2.30;;;19.60;1.00;;;;;;5047422;28;20734;-54
2022/08/06 04:03:14;;;;;;;7.72;2.70;;;19.60;1.00;;;;;;5048382;28;20767;-54
2022/08/06 04:05:42;;;;;;;8.17;2.20;;;19.70;1.00;;;;;;5049398;28;20389;-55
2022/08/06 04:08:09;;;;;;;7.30;2.63;;;19.50;1.00;;;;;;5048165;28;20390;-57
2022/08/06 04:10:43;;;;;;;7.55;3.20;;;19.40;1.00;;;;;;5049263;28;20889;-52
2022/08/06 04:13:13;;;;;;;8.80;2.80;;;19.40;1.00;;;;;;5048945;28;20865;-53
2022/08/06 04:15:40;;;;;;;6.20;2.42;;;19.40;1.00;;;;;;5048880;28;20413;-52
2022/08/06 04:18:10;;;;;;;9.50;2.60;;;19.40;1.00;;;;;;5048153;28;20459;-53
2022/08/06 04:20:39;;;;;;;7.60;2.50;;;19.30;1.00;;;;;;5049344;28;20436;-52
2022/08/06 04:23:05;;;;;;;7.53;2.65;;;19.30;1.00;;;;;;5048635;28;20497;-59
2022/08/06 04:25:39;;;;;;;7.30;2.65;;;19.40;1.00;;;;;;5049021;28;20795;-53
2022/08/06 04:28:06;;;;;;;6.50;2.40;;;19.40;1.00;;;;;;5048896;28;20405;-60
2022/08/06 04:30:34;;;;;;;6.50;2.53;;;19.40;1.00;;;;;;5049207;28;20476;-52
2022/08/06 04:33:02;;;;;;;6.15;2.30;;;19.50;1.00;;;;;;5049163;28;20747;-52
2022/08/06 04:35:29;;;;;;;6.78;2.58;;;19.40;1.00;;;;;;5048709;28;20401;-52
2022/08/06 04:37:56;;;;;;;6.13;2.95;;;19.60;1.00;;;;;;5049288;28;20387;-53
2022/08/06 04:40:23;;;;;;;8.75;2.90;;;19.60;1.00;;;;;;5048724;28;20866;-52
2022/08/06 04:42:49;;;;;;;7.60;2.50;;;19.50;1.00;;;;;;5030859;28;20414;-53
2022/08/06 04:45:15;;;;;;;7.78;2.80;;;19.40;1.00;;;;;;5048200;28;20428;-53
2022/08/06 04:47:42;;;;;;;7.93;2.50;;;19.40;1.00;;;;;;5048942;28;20377;-52
2022/08/06 04:50:10;;;;;;;5.80;2.37;;;19.30;1.00;;;;;;5048513;28;20439;-59
2022/08/06 04:52:36;;;;;;;6.13;2.63;;;19.30;1.00;;;;;;5046274;28;20389;-52
2022/08/06 04:55:02;;;;;;;8.88;3.00;;;19.40;1.00;;;;;;5048738;28;20401;-52
2022/08/06 04:57:27;;;;;;;7.75;3.00;;;19.40;1.00;;;;;;5047966;28;20397;-53
2022/08/06 04:59:53;;;;;;;6.03;2.60;;;19.30;1.00;;;;;;5049086;28;20393;-55
2022/08/06 05:02:19;;;;;;;6.60;2.40;;;19.30;1.00;;;;;;5049236;28;20384;-52
2022/08/06 05:04:46;;;;;;;6.70;2.70;;;19.30;1.00;;;;;;5052502;28;20421;-52
2022/08/06 05:07:30;;;;;;;7.20;2.80;;;19.10;47.70;;;;;;5052213;28;20373;-52
2022/08/06 05:09:57;;;;;;;10.18;3.20;;;19.10;52.50;;;;;;5050457;28;20431;-52
2022/08/06 05:12:33;;;;;;;8.13;3.17;;;19.20;75.90;;;;;;5051343;28;20630;-53
2022/08/06 05:15:21;;;;;;;7.40;2.58;;;19.20;97.30;;;;;;5049721;28;20885;-52
2022/08/06 05:17:54;;;;;;;6.55;2.50;;;19.20;39.30;;;;;;5049785;28;20478;-53
2022/08/06 05:20:21;;;;;;;8.40;3.13;;;19.20;99.90;;;;;;5048900;28;20394;-54
2022/08/06 05:22:51;;;;;;;7.60;3.10;;;19.20;99.90;;;;;;5050332;28;20397;-54
2022/08/06 05:25:17;;;;;;;7.95;2.85;;;19.20;99.90;;;;;;5050825;28;20405;-52
2022/08/06 05:27:43;;;;;;;6.75;2.67;;;19.40;44.90;;;;;;5047464;28;20874;-52
2022/08/06 05:30:09;;;;;;;7.53;2.40;;;19.50;27.70;;;;;;5051573;28;20492;-55
2022/08/06 05:32:45;;;;;;;7.80;2.80;;;19.50;17.00;;;;;;5052411;28;20435;-52
2022/08/06 05:35:12;;;;;;;6.60;2.80;;;19.50;11.20;;;;;;5051053;28;20442;-52
2022/08/06 05:37:38;;;;;;;10.70;2.80;;;19.80;1.00;;;;;;5051731;28;20405;-52
2022/08/06 05:40:05;;;;;;;7.20;3.00;;;20.60;1.00;;;;;;5049198;28;20854;-52
2022/08/06 05:42:30;;;;;;;6.20;2.60;;;21.40;1.00;;;;;;5051129;28;20503;-53
2022/08/06 05:44:56;;;;;;;10.98;3.40;;;21.60;1.00;;;;;;5047729;28;20410;-53
2022/08/06 05:47:25;;;;;;;6.87;2.37;;;21.90;1.00;;;;;;5049433;28;20429;-52
2022/08/06 05:50:15;;;;;;;7.32;2.80;;;22.50;99.90;;;;;;5051555;28;20459;-52
2022/08/06 05:52:49;;;;;;;6.55;2.60;;;22.90;99.90;;;;;;5051069;28;20467;-52
2022/08/06 05:55:52;;;;;;;7.80;2.80;;;22.70;99.90;;;;;;5031917;28;20767;-53
2022/08/06 05:58:43;;;;;;;10.20;2.90;;;22.80;99.90;;;;;;5050397;28;20405;-53
2022/08/06 06:01:09;;;;;;;7.40;2.70;;;22.90;99.90;;;;;;5043230;28;20871;-60
2022/08/06 06:03:38;;;;;;;9.02;2.60;;;23.20;99.90;;;;;;5048570;28;20405;-53
2022/08/06 06:06:05;;;;;;;7.00;2.50;;;23.20;99.90;;;;;;5044321;28;20413;-52
2022/08/06 06:08:31;;;;;;;7.87;2.50;;;23.60;99.90;;;;;;5052083;28;20404;-52
2022/08/06 06:10:57;;;;;;;6.70;2.42;;;24.20;99.90;;;;;;5051549;28;20382;-53
2022/08/06 06:13:24;;;;;;;6.20;2.50;;;24.40;99.90;;;;;;5049840;28;20394;-53
2022/08/06 06:16:16;;;;;;;9.05;3.80;;;24.10;99.90;;;;;;5051062;28;20885;-53
2022/08/06 06:19:00;;;;;;;6.85;2.70;;;;;;;;;;5051510;28;20429;-52
2022/08/06 06:21:47;;;;;;;6.10;2.50;;;;;;;;;;5050325;28;20374;-53
2022/08/06 06:24:37;;;;;;;6.60;2.30;;;;;;;;;;5030962;28;20837;-53
2022/08/06 06:27:03;;;;;;;7.10;2.40;;;;;;;;;;5037916;28;20397;-53
2022/08/06 06:29:29;;;;;;;5.50;2.10;;;;;;;;;;5051087;28;20724;-54
2022/08/06 06:31:55;;;;;;;7.38;2.45;;;;;;;;;;5050916;28;20389;-52
2022/08/06 06:34:26;;;;;;;6.83;2.20;;;;;;;;;;5051099;28;20384;-55
2022/08/06 06:36:55;;;;;;;7.00;2.50;;;;;;;;;;5050441;28;20396;-53
2022/08/06 06:39:32;;;;;;;8.18;2.75;;;;;;;;;;5049785;28;22094;-53
2022/08/06 06:42:07;;;;;;;6.90;2.50;;;;;;;;;;5050760;28;20385;-52
2022/08/06 06:44:33;;;;;;;6.30;2.20;;;;;;;;;;5051121;28;20385;-53
2022/08/06 06:47:04;;;;;;;6.90;2.28;;;;;;;;;;5051064;28;20393;-53
2022/08/06 06:49:48;;;;;;;6.20;2.30;;;;;;;;;;5050217;28;20927;-53
2022/08/06 06:52:16;;;;;;;6.68;2.33;;;;;;;;;;5049299;28;20762;-53
2022/08/06 06:54:45;;;;;;;6.10;2.27;;;;;;;;;;5050591;28;20369;-53
2022/08/06 06:57:12;;;;;;;6.15;2.10;;;;;;;;;;5050025;28;20400;-61
2022/08/06 06:59:42;;;;;;;6.47;2.13;;;;;;;;;;5050899;28;20374;-53
2022/08/06 07:02:15;;;;;;;7.00;2.30;;;;;;;;;;5049863;28;20463;-57
2022/08/06 07:04:42;;;;;;;6.25;2.50;;;;;;;;;;5051021;28;20779;-53
2022/08/06 07:07:09;;;;;;;6.10;2.50;;;;;;;;;;5050022;28;20393;-60
2022/08/06 07:09:36;;;;;;;6.68;2.70;;;;;;;;;;5050583;28;20395;-51
2022/08/06 07:12:02;;;;;;;7.25;2.90;;;;;;;;;;5050020;28;20847;-53
2022/08/06 07:14:30;;;;;;;7.43;3.20;;;;;;;;;;5049212;28;20396;-53
2022/08/06 07:16:57;;;;;;;8.07;2.42;;;;;;;;;;5050008;28;20751;-53
2022/08/06 07:19:24;;;;;;;6.35;2.35;;;;;;;;;;5049364;28;20404;-54
2022/08/06 07:21:50;;;;;;;6.10;2.30;;;;;;;;;;5050156;28;20431;-53
2022/08/06 07:24:17;;;;;;;6.88;2.35;;;;;;;;;;5049566;28;20381;-53
2022/08/06 07:26:44;;;;;;;6.10;2.30;;;;;;;;;;5049930;28;20424;-53
2022/08/06 07:29:11;;;;;;;5.90;2.23;;;;;;;;;;5049563;28;20421;-61
2022/08/06 07:31:38;;;;;;;7.47;2.60;;;;;;;;;;5032435;28;20377;-53
2022/08/06 07:34:04;;;;;;;6.37;2.50;;;;;;;;;;5050202;28;20436;-54
2022/08/06 07:36:36;;;;;;;7.57;2.45;;;;;;;;;;5049272;28;20872;-53
2022/08/06 07:39:04;;;;;;;7.10;2.70;;;;;;;;;;5050369;28;20393;-53
2022/08/06 07:41:30;;;;;;;7.20;2.20;;;;;;;;;;5049212;28;20362;-53
2022/08/06 07:43:58;;;;;;;6.57;2.30;;;;;;;;;;5050214;28;20515;-53
2022/08/06 07:46:27;;;;;;;7.10;2.65;;;;;;;;;;5048841;28;20866;-53
2022/08/06 07:48:59;;;;;;;7.17;2.60;;;29.70;99.90;;;;;;5050418;28;20405;-53
2022/08/06 07:51:29;;;;;;;6.40;2.22;;;29.50;99.90;;;;;;5049487;28;20385;-54
2022/08/06 07:53:56;;;;;;;6.25;2.30;;;30.00;99.90;;;;;;5049872;28;20389;-54
2022/08/06 07:56:22;;;;;;;5.47;2.17;;;30.60;99.90;;;;;;5048798;28;20424;-53
2022/08/06 07:58:49;;;;;;;7.82;2.38;;;30.10;99.90;;;;;;5049705;28;20869;-53
2022/08/06 08:01:16;;;;;;;7.43;2.80;;;30.10;99.90;;;;;;5048310;28;20397;-53
2022/08/06 08:06:29;;;;;;;7.13;2.67;;;29.80;99.90;;;;;;5056687;28;20448;-53
2022/08/06 08:08:56;;;;;;;6.40;2.80;;;28.90;99.90;;;;;;5049249;28;20433;-53
2022/08/06 08:11:24;;;;;;;6.03;2.80;;;28.70;99.90;;;;;;5030558;28;20394;-54
2022/08/06 08:13:54;;;;;;;7.05;2.92;;;28.80;99.90;;;;;;5049270;28;20618;-58
2022/08/06 08:16:21;;;;;;;6.50;2.50;;;28.30;99.90;;;;;;5048958;28;20405;-53
2022/08/06 08:18:47;;;;;;;8.70;2.80;;;27.80;99.90;;;;;;5049631;28;20463;-53
2022/08/06 08:21:14;;;;;;;7.40;2.50;;;28.20;99.90;;;;;;5051208;28;20401;-53
2022/08/06 08:23:42;;;;;;;6.90;2.60;;;28.80;99.90;;;;;;5060787;28;20394;-53
2022/08/06 08:26:08;;;;;;;8.00;2.57;;;28.70;99.90;;;;;;5062090;28;20401;-55
2022/08/06 08:28:34;;;;;;;6.87;2.30;;;29.70;99.90;;;;;;5049096;28;20418;-53
2022/08/06 08:31:03;;;;;;;6.47;2.38;;;30.20;99.90;;;;;;5049987;28;20380;-53
2022/08/06 08:33:29;;;;;;;7.30;3.00;;;31.00;99.90;;;;;;5048727;28;20464;-55
2022/08/06 08:35:55;;;;;;;6.47;2.40;;;32.00;99.90;;;;;;5049302;28;20750;-54
2022/08/06 08:38:21;;;;;;;5.97;2.70;;;32.00;99.90;;;;;;5051347;28;20400;-54
2022/08/06 08:40:49;;;;;;;10.33;3.00;;;31.40;99.90;;;;;;5052904;28;20891;-54
2022/08/06 08:43:19;;;;;;;7.00;2.67;;;29.90;99.90;;;;;;5052149;28;20424;-53
2022/08/06 08:45:49;;;;;;;6.55;2.65;;;29.30;99.90;;;;;;5053399;28;20484;-53
2022/08/06 08:48:16;;;;;;;5.57;2.40;;;29.40;99.90;;;;;;5052290;28;20384;-53
2022/08/06 08:50:43;;;;;;;6.53;2.38;;;29.30;99.90;;;;;;5052960;28;20468;-53
2022/08/06 08:53:13;;;;;;;7.72;2.30;;;28.70;99.90;;;;;;5052327;28;20377;-60
2022/08/06 08:55:40;;;;;;;8.60;2.50;;;28.50;99.90;;;;;;5053309;28;20475;-53
2022/08/06 08:58:06;;;;;;;6.82;2.78;;;28.20;99.90;;;;;;5052593;28;20528;-53
2022/08/06 09:00:33;;;;;;;8.60;2.70;;;27.40;99.90;;;;;;5051996;28;20385;-53
2022/08/06 09:02:59;;;;;;;6.63;2.38;;;26.60;99.90;;;;;;5052780;28;20718;-53
2022/08/06 09:05:25;;;;;;;6.20;2.40;;;27.80;99.90;;;;;;5051832;28;20420;-53
2022/08/06 09:07:51;;;;;;;7.40;2.80;;;28.70;99.90;;;;;;5052606;28;20425;-53
2022/08/06 09:10:17;;;;;;;6.57;2.50;;;29.60;99.90;;;;;;5052001;28;20765;-53
2022/08/06 09:12:44;;;;;;;5.50;2.10;;;29.50;99.90;;;;;;5052845;28;20406;-53
2022/08/06 09:15:09;;;;;;;7.30;2.38;;;29.60;99.90;;;;;;5052087;28;20780;-59
2022/08/06 09:17:36;;;;;;;6.50;2.30;;;29.70;99.90;;;;;;5051662;28;20492;-53
2022/08/06 09:20:03;;;;;;;6.03;2.38;;;30.20;99.90;;;;;;5052598;28;20515;-53
2022/08/06 09:22:29;;;;;;;8.80;2.20;;;30.00;99.90;;;;;;5051976;28;20374;-55
2022/08/06 09:24:54;;;;;;;6.60;2.50;;;29.70;99.90;;;;;;5051861;28;20416;-53
2022/08/06 09:27:20;;;;;;;5.90;2.60;;;29.40;99.90;;;;;;5051654;28;20417;-53
2022/08/06 09:30:00;;;;;;;5.77;2.37;;;30.00;99.90;;;;;;5052256;28;20386;-53
2022/08/06 09:32:42;;;;;;;5.68;2.33;;;30.50;99.90;;;;;;5051879;28;20484;-53
2022/08/06 09:35:23;;;;;;;5.80;2.10;;;29.10;99.90;;;;;;5052125;28;20890;-59
2022/08/06 09:37:58;;;;;;;6.50;2.00;;;28.50;99.90;;;;;;5052523;28;20746;-53
2022/08/06 09:40:24;;;;;;;5.37;2.00;;;29.80;99.90;;;;;;5051472;28;20404;-52
2022/08/06 09:42:51;;;;;;;9.27;2.10;;;29.60;99.90;;;;;;5051585;28;20397;-52
2022/08/06 09:45:18;;;;;;;6.72;2.72;;;29.30;99.90;;;;;;5051079;28;20523;-54
2022/08/06 09:47:49;;;;;;;6.50;2.60;;;28.80;99.90;;;;;;5052168;28;20389;-52
2022/08/06 09:50:33;;;;;;;5.90;2.30;;;28.40;99.90;;;;;;5051291;28;20890;-52
2022/08/06 09:53:02;;;;;;;5.05;1.70;;;30.10;99.90;;;;;;5052518;28;20370;-53
2022/08/06 09:55:29;;;;;;;7.20;2.30;;;31.30;99.90;;;;;;5051199;28;20436;-53
2022/08/06 09:57:56;;;;;;;6.90;2.20;;;31.20;99.90;;;;;;5052015;28;20386;-53
2022/08/06 10:00:30;;;;;;;6.13;2.25;;;32.00;99.90;;;;;;5051090;28;20743;-53
2022/08/06 10:03:07;;;;;;;6.00;1.98;;;32.90;99.90;;;;;;5051925;28;20566;-53
2022/08/06 10:05:33;;;;;;;6.35;2.20;;;32.70;99.90;;;;;;5051047;28;20393;-54
2022/08/06 10:08:16;;;;;;;6.10;2.10;;;34.00;99.90;;;;;;5051367;28;20855;-53
2022/08/06 10:10:43;;;;;;;6.60;2.70;;;34.40;99.90;;;;;;5051047;28;20885;-53
2022/08/06 10:13:25;;;;;;;6.28;2.55;;;35.10;99.90;;;;;;5051077;28;20472;-61
2022/08/06 10:15:53;;;;;;;7.20;2.80;;;35.10;99.90;;;;;;5051695;28;20754;-53
2022/08/06 10:18:39;;;;;;;6.17;2.70;;;34.60;99.90;;;;;;5051322;28;20385;-53
2022/08/06 10:21:06;;;;;;;5.88;2.70;;;32.70;99.90;;;;;;5049484;28;20404;-53
2022/08/06 10:23:33;;;;;;;6.15;3.20;;;30.90;99.90;;;;;;5050359;28;20930;-54
2022/08/06 10:26:01;;;;;;;6.68;3.40;;;29.50;99.90;;;;;;5051180;28;20393;-53
2022/08/06 10:28:27;;;;;;;7.00;3.40;;;29.40;99.90;;;;;;5050383;28;20413;-53
2022/08/06 10:30:54;;;;;;;5.70;1.80;;;29.40;99.90;;;;;;5051638;28;20483;-53
2022/08/06 10:33:22;;;;;;;6.93;2.20;;;28.80;99.90;;;;;;5050090;28;20875;-53
2022/08/06 10:35:52;;;;;;;5.47;1.80;;;28.00;99.90;;;;;;5050570;28;20420;-53
2022/08/06 10:38:25;;;;;;;7.00;2.00;;;27.30;99.90;;;;;;5050920;28;20394;-53
2022/08/06 10:40:52;;;;;;;7.57;2.03;;;27.20;99.90;;;;;;5051258;28;20361;-53
2022/08/06 10:43:19;;;;;;;5.57;2.25;;;27.70;99.90;;;;;;5050584;28;20514;-53
2022/08/06 10:45:45;;;;;;;6.70;2.30;;;28.40;99.90;;;;;;5050682;28;20415;-54
2022/08/06 10:48:11;;;;;;;6.40;2.50;;;28.70;99.90;;;;;;5050592;28;20400;-53
2022/08/06 10:50:39;;;;;;;7.15;2.00;;;28.90;99.90;;;;;;5051426;28;20417;-53
2022/08/06 10:53:05;;;;;;;7.18;2.13;;;28.90;99.90;;;;;;5051093;28;20381;-53
2022/08/06 10:55:31;;;;;;;5.50;1.90;;;28.70;99.90;;;;;;5050367;28;20999;-55
2022/08/06 10:57:58;;;;;;;7.55;2.00;;;28.70;99.90;;;;;;5050854;28;20396;-53
2022/08/06 11:00:27;;;;;;;6.60;2.03;;;28.60;99.90;;;;;;5049897;28;20447;-53
2022/08/06 11:03:06;;;;;;;6.07;2.00;;;28.10;99.90;;;;;;5051085;28;20385;-54
2022/08/06 11:05:38;;;;;;;7.22;2.30;;;27.80;99.90;;;;;;5050010;28;20409;-54
2022/08/06 11:08:06;;;;;;;7.00;2.40;;;28.00;99.90;;;;;;5050902;28;20438;-54
2022/08/06 11:11:00;;;;;;;5.70;2.00;;;28.40;99.90;;;;;;5049865;28;20482;-53
2022/08/06 11:13:38;;;;;;;7.20;2.30;;;27.60;99.90;;;;;;5049364;28;20436;-53
2022/08/06 11:16:04;;;;;;;6.60;2.20;;;27.60;99.90;;;;;;5051757;28;20492;-53
2022/08/06 11:18:29;;;;;;;5.90;2.10;;;27.80;99.90;;;;;;5050251;28;20480;-53
2022/08/06 11:20:59;;;;;;;5.93;2.10;;;28.00;99.90;;;;;;5051122;28;20751;-54
2022/08/06 11:23:29;;;;;;;5.90;2.10;;;28.10;99.90;;;;;;5049593;28;20906;-54
2022/08/06 11:25:57;;;;;;;5.88;2.20;;;28.40;99.90;;;;;;5050563;28;20393;-55
2022/08/06 11:28:28;;;;;;;5.35;1.98;;;28.40;99.90;;;;;;5048614;28;20417;-53
2022/08/06 11:30:57;;;;;;;5.90;2.08;;;28.50;99.90;;;;;;5050532;28;20489;-53
2022/08/06 11:33:35;;;;;;;7.18;2.30;;;28.50;99.90;;;;;;5049499;28;20595;-53
2022/08/06 11:36:02;;;;;;;6.57;2.20;;;28.50;99.90;;;;;;5050176;28;20401;-53
2022/08/06 11:38:46;;;;;;;6.05;1.92;;;29.00;99.90;;;;;;5049182;28;20417;-53
2022/08/06 11:41:24;;;;;;;7.00;2.37;;;29.40;99.90;;;;;;5048642;28;20425;-58
2022/08/06 11:43:53;;;;;;;7.63;2.50;;;28.80;99.90;;;;;;5049948;28;20374;-52
2022/08/06 11:46:30;;;;;;;6.03;2.30;;;28.60;99.90;;;;;;5049029;28;20394;-52
2022/08/06 11:48:59;;;;;;;5.55;2.10;;;28.80;99.90;;;;;;5049831;28;20394;-53
2022/08/06 11:51:49;;;;;;;6.55;2.30;;;28.50;99.90;;;;;;5049656;28;20390;-53
2022/08/06 11:54:24;;;;;;;6.47;2.22;;;28.10;99.90;;;;;;5049677;28;20881;-53
2022/08/06 11:57:02;;;;;;;5.75;2.20;;;28.20;99.90;;;;;;5049783;28;20425;-53
2022/08/06 11:59:32;;;;;;;7.53;2.50;;;28.10;99.90;;;;;;5049138;28;20394;-53
2022/08/06 12:01:59;;;;;;;7.27;2.30;;;27.90;99.90;;;;;;5050289;28;20855;-52
2022/08/06 12:04:44;;;;;;;10.10;2.50;;;27.90;99.90;;;;;;5048693;28;20381;-55
2022/08/06 12:07:22;;;;;;;5.80;2.00;;;28.40;99.90;;;;;;5050065;28;20381;-53
2022/08/06 12:10:06;;;;;;;5.30;1.80;;;28.20;99.90;;;;;;5050135;28;20938;-53
2022/08/06 12:12:39;;;;;;;6.85;1.70;;;28.20;99.90;;;;;;5048406;28;20393;-53
2022/08/06 12:15:16;;;;;;;6.72;1.70;;;28.40;99.90;;;;;;5049948;28;20401;-52
2022/08/06 12:17:56;;;;;;;6.40;2.22;;;28.40;99.90;;;;;;5049827;28;20385;-52
2022/08/06 12:20:42;;;;;;;6.20;1.98;;;28.40;99.90;;;;;;5048957;28;20926;-53
2022/08/06 12:23:13;;;;;;;6.10;1.80;;;28.30;99.90;;;;;;5050015;28;20381;-52
2022/08/06 12:25:41;;;;;;;6.10;2.10;;;27.60;99.90;;;;;;5050238;28;20822;-53
2022/08/06 12:28:13;;;;;;;6.15;2.20;;;27.40;99.90;;;;;;5049749;28;20806;-53
2022/08/06 12:30:52;;;;;;;7.60;2.20;;;27.10;99.90;;;;;;5049175;28;20385;-53
2022/08/06 12:33:19;;;;;;;7.15;2.08;;;27.20;99.90;;;;;;5049088;28;20432;-53
2022/08/06 12:35:48;;;;;;;5.57;1.50;;;27.10;99.90;;;;;;5049539;28;20444;-52
2022/08/06 12:38:13;;;;;;;6.80;2.28;;;27.60;99.90;;;;;;5049113;28;20396;-59
2022/08/06 12:40:39;;;;;;;6.70;2.30;;;27.60;99.90;;;;;;5049119;28;20378;-52
2022/08/06 12:43:04;;;;;;;6.38;2.00;;;27.70;99.90;;;;;;5049611;28;20830;-53
2022/08/06 12:45:32;;;;;;;6.60;2.10;;;27.50;99.90;;;;;;5048905;28;20395;-53
2022/08/06 12:47:59;;;;;;;5.70;1.80;;;27.60;99.90;;;;;;5049746;28;20390;-53
2022/08/06 12:50:26;;;;;;;6.97;1.90;;;27.70;99.90;;;;;;5048976;28;20386;-52
2022/08/06 12:53:09;;;;;;;6.87;1.93;;;28.20;99.90;;;;;;5049250;28;20544;-52
2022/08/06 12:55:41;;;;;;;6.55;1.95;;;28.30;99.90;;;;;;5048449;28;20429;-53
2022/08/06 12:58:09;;;;;;;6.30;2.28;;;28.10;99.90;;;;;;5049797;28;20830;-54
2022/08/06 13:00:35;;;;;;;5.50;1.88;;;27.70;99.90;;;;;;5048967;28;20385;-52
2022/08/06 13:03:03;;;;;;;5.68;1.90;;;27.60;99.90;;;;;;5049201;28;20472;-52
2022/08/06 13:05:29;;;;;;;5.85;1.52;;;27.80;99.90;;;;;;5049011;28;20381;-52
2022/08/06 13:07:56;;;;;;;6.60;1.90;;;28.10;99.90;;;;;;5048852;28;20385;-52
2022/08/06 13:10:21;;;;;;;5.32;1.70;;;27.80;99.90;;;;;;5048260;28;20377;-53
2022/08/06 13:13:02;;;;;;;6.00;2.00;;;27.50;99.90;;;;;;5049680;28;20389;-52
2022/08/06 13:15:30;;;;;;;5.30;1.77;;;27.40;99.90;;;;;;5028535;28;20449;-52
2022/08/06 13:18:13;;;;;;;6.88;1.80;;;27.50;99.90;;;;;;5028914;28;20383;-52
2022/08/06 13:20:42;;;;;;;6.93;1.60;;;27.40;99.90;;;;;;5041792;28;20535;-52